CSN6425 ZYHB-ZYTL
Flight info
| Callsign | CSN6425 |
|---|---|
| Flight time | 1h 21m |
| Altitude | 34100 |
| Route | DUK19D DUKIR W655 NIMEM W205 NULRA A588 VENOS |
| Aircraft | A321/M-SDE3FGHIRWY/LB1 |
Departure
| Time | 2026-04-28 08:14 |
|---|---|
| Airport | Harbin Taiping International Airport (ZYHB) |
Arrival
| Time | 2026-04-28 09:35 |
|---|---|
| Airport | Dalian Zhoushuizi International Airport (ZYTL) |
| Time | Latitude | Longitude | Altitude | Speed | Heading |
|---|---|---|---|---|---|
| 2026-04-28 07:54 | 45.61543 | 126.23256 | 471 ft | 0 kts | 40° |
| 2026-04-28 08:02 | 45.61540 | 126.23252 | 468 ft | 2 kts | 40° |
| 2026-04-28 08:02 | 45.61527 | 126.23237 | 468 ft | 2 kts | 38° |
| 2026-04-28 08:02 | 45.61514 | 126.23222 | 470 ft | 2 kts | 39° |
| 2026-04-28 08:02 | 45.61502 | 126.23205 | 469 ft | 2 kts | 60° |
| 2026-04-28 08:03 | 45.61499 | 126.23183 | 466 ft | 2 kts | 111° |
| 2026-04-28 08:03 | 45.61505 | 126.23169 | 468 ft | 1 kts | 127° |
| 2026-04-28 08:03 | 45.61505 | 126.23168 | 468 ft | 0 kts | 128° |
| 2026-04-28 08:05 | 45.61500 | 126.23179 | 468 ft | 3 kts | 129° |
| 2026-04-28 08:06 | 45.61477 | 126.23217 | 471 ft | 7 kts | 130° |
| 2026-04-28 08:06 | 45.61438 | 126.23284 | 470 ft | 10 kts | 129° |
| 2026-04-28 08:06 | 45.61395 | 126.23360 | 471 ft | 8 kts | 129° |
| 2026-04-28 08:06 | 45.61337 | 126.23392 | 469 ft | 11 kts | 202° |
| 2026-04-28 08:07 | 45.61268 | 126.23315 | 468 ft | 14 kts | 219° |
| 2026-04-28 08:07 | 45.61185 | 126.23218 | 469 ft | 17 kts | 219° |
| 2026-04-28 08:07 | 45.61085 | 126.23101 | 469 ft | 20 kts | 219° |
| 2026-04-28 08:07 | 45.60973 | 126.22971 | 472 ft | 22 kts | 219° |
| 2026-04-28 08:08 | 45.60891 | 126.22874 | 471 ft | 13 kts | 219° |
| 2026-04-28 08:08 | 45.60836 | 126.22817 | 470 ft | 9 kts | 193° |
| 2026-04-28 08:08 | 45.60780 | 126.22874 | 472 ft | 12 kts | 129° |
| 2026-04-28 08:08 | 45.60721 | 126.22975 | 471 ft | 15 kts | 130° |
| 2026-04-28 08:09 | 45.60651 | 126.23095 | 472 ft | 17 kts | 130° |
| 2026-04-28 08:09 | 45.60570 | 126.23232 | 475 ft | 19 kts | 130° |
| 2026-04-28 08:09 | 45.60481 | 126.23385 | 473 ft | 21 kts | 130° |
| 2026-04-28 08:09 | 45.60392 | 126.23537 | 475 ft | 15 kts | 130° |
| 2026-04-28 08:10 | 45.60334 | 126.23636 | 476 ft | 12 kts | 130° |
| 2026-04-28 08:10 | 45.60311 | 126.23675 | 477 ft | 0 kts | 130° |
| 2026-04-28 08:12 | 45.60308 | 126.23680 | 472 ft | 2 kts | 130° |
| 2026-04-28 08:12 | 45.60288 | 126.23714 | 474 ft | 7 kts | 130° |
| 2026-04-28 08:12 | 45.60249 | 126.23774 | 472 ft | 7 kts | 145° |
| 2026-04-28 08:12 | 45.60199 | 126.23767 | 473 ft | 7 kts | 216° |
| 2026-04-28 08:13 | 45.60187 | 126.23754 | 476 ft | 0 kts | 220° |
| 2026-04-28 08:13 | 45.60111 | 126.23665 | 477 ft | 46 kts | 219° |
| 2026-04-28 08:13 | 45.59675 | 126.23154 | 481 ft | 114 kts | 219° |
| 2026-04-28 08:14 | 45.58921 | 126.22272 | 499 ft | 167 kts | 219° |
| 2026-04-28 08:14 | 45.57985 | 126.21181 | 1016 ft | 172 kts | 221° |
| 2026-04-28 08:14 | 45.57044 | 126.20082 | 1716 ft | 176 kts | 223° |
| 2026-04-28 08:14 | 45.56097 | 126.18982 | 2426 ft | 173 kts | 224° |
| 2026-04-28 08:15 | 45.55478 | 126.18261 | 2797 ft | 174 kts | 223° |
| 2026-04-28 08:15 | 45.54211 | 126.16791 | 3482 ft | 176 kts | 223° |
| 2026-04-28 08:15 | 45.53244 | 126.15654 | 3844 ft | 186 kts | 223° |
| 2026-04-28 08:15 | 45.52580 | 126.14872 | 4030 ft | 195 kts | 223° |
| 2026-04-28 08:16 | 45.51090 | 126.13133 | 4411 ft | 214 kts | 223° |
| 2026-04-28 08:16 | 45.49892 | 126.11735 | 4681 ft | 233 kts | 222° |
| 2026-04-28 08:16 | 45.49478 | 126.11252 | 4779 ft | 239 kts | 222° |
| 2026-04-28 08:16 | 45.47234 | 126.08637 | 5438 ft | 262 kts | 222° |
| 2026-04-28 08:17 | 45.46265 | 126.07514 | 5875 ft | 267 kts | 222° |
| 2026-04-28 08:17 | 45.44349 | 126.05291 | 6802 ft | 270 kts | 222° |
| 2026-04-28 08:17 | 45.42888 | 126.03598 | 7515 ft | 271 kts | 222° |
| 2026-04-28 08:17 | 45.41418 | 126.01892 | 8191 ft | 274 kts | 222° |
| 2026-04-28 08:18 | 45.39936 | 126.00178 | 8857 ft | 276 kts | 222° |
| 2026-04-28 08:18 | 45.38439 | 125.98444 | 9528 ft | 278 kts | 222° |
| 2026-04-28 08:18 | 45.36927 | 125.96696 | 10142 ft | 283 kts | 221° |
| 2026-04-28 08:18 | 45.35189 | 125.95239 | 10468 ft | 302 kts | 202° |
| 2026-04-28 08:19 | 45.33059 | 125.94745 | 10700 ft | 321 kts | 184° |
| 2026-04-28 08:19 | 45.30763 | 125.94753 | 10925 ft | 337 kts | 181° |
| 2026-04-28 08:19 | 45.29960 | 125.94771 | 10994 ft | 342 kts | 181° |
| 2026-04-28 08:19 | 45.27558 | 125.94814 | 11206 ft | 357 kts | 181° |
| 2026-04-28 08:21 | 45.08126 | 125.94515 | 14712 ft | 390 kts | 184° |
| 2026-04-28 08:21 | 45.05411 | 125.94308 | 15179 ft | 392 kts | 185° |
| 2026-04-28 08:22 | 45.02672 | 125.94102 | 15657 ft | 395 kts | 185° |
| 2026-04-28 08:22 | 44.99921 | 125.93901 | 16132 ft | 397 kts | 184° |
| 2026-04-28 08:22 | 44.97155 | 125.93701 | 16588 ft | 400 kts | 185° |
| 2026-04-28 08:22 | 44.94368 | 125.93501 | 17037 ft | 402 kts | 185° |
| 2026-04-28 08:23 | 44.91563 | 125.93297 | 17486 ft | 404 kts | 185° |
| 2026-04-28 08:23 | 44.88744 | 125.93091 | 17926 ft | 407 kts | 185° |
| 2026-04-28 08:23 | 44.85910 | 125.92886 | 18350 ft | 409 kts | 185° |
| 2026-04-28 08:23 | 44.83055 | 125.92681 | 18721 ft | 412 kts | 185° |
| 2026-04-28 08:24 | 44.80186 | 125.92475 | 19092 ft | 414 kts | 185° |
| 2026-04-28 08:24 | 44.77298 | 125.92266 | 19461 ft | 417 kts | 185° |
| 2026-04-28 08:24 | 44.74390 | 125.92057 | 19805 ft | 419 kts | 185° |
| 2026-04-28 08:24 | 44.71463 | 125.91849 | 20161 ft | 422 kts | 185° |
| 2026-04-28 08:25 | 44.68526 | 125.91639 | 20500 ft | 424 kts | 184° |
| 2026-04-28 08:25 | 44.65569 | 125.91427 | 20835 ft | 427 kts | 184° |
| 2026-04-28 08:25 | 44.62588 | 125.91215 | 21174 ft | 430 kts | 184° |
| 2026-04-28 08:26 | 44.56581 | 125.90783 | 21839 ft | 434 kts | 184° |
| 2026-04-28 08:26 | 44.53558 | 125.90563 | 22164 ft | 436 kts | 184° |
| 2026-04-28 08:26 | 44.50519 | 125.90344 | 22498 ft | 439 kts | 184° |
| 2026-04-28 08:26 | 44.47460 | 125.90128 | 22810 ft | 441 kts | 184° |
| 2026-04-28 08:27 | 44.44389 | 125.89913 | 23130 ft | 443 kts | 184° |
| 2026-04-28 08:27 | 44.41302 | 125.89696 | 23440 ft | 445 kts | 184° |
| 2026-04-28 08:27 | 44.38199 | 125.89477 | 23715 ft | 447 kts | 184° |
| 2026-04-28 08:27 | 44.35085 | 125.89255 | 23985 ft | 449 kts | 184° |
| 2026-04-28 08:28 | 44.31965 | 125.89033 | 24252 ft | 450 kts | 184° |
| 2026-04-28 08:28 | 44.28832 | 125.88810 | 24521 ft | 451 kts | 184° |
| 2026-04-28 08:28 | 44.25693 | 125.88587 | 24783 ft | 453 kts | 184° |
| 2026-04-28 08:28 | 44.22541 | 125.88364 | 25039 ft | 454 kts | 185° |
| 2026-04-28 08:29 | 44.19382 | 125.88143 | 25300 ft | 455 kts | 185° |
| 2026-04-28 08:29 | 44.16212 | 125.87918 | 25558 ft | 456 kts | 185° |
| 2026-04-28 08:29 | 44.13038 | 125.87694 | 25811 ft | 457 kts | 185° |
| 2026-04-28 08:29 | 44.09898 | 125.87474 | 26060 ft | 459 kts | 185° |
| 2026-04-28 08:30 | 44.06706 | 125.87250 | 26309 ft | 460 kts | 185° |
| 2026-04-28 08:30 | 44.03509 | 125.87025 | 26548 ft | 461 kts | 185° |
| 2026-04-28 08:30 | 44.00295 | 125.86799 | 26783 ft | 462 kts | 185° |
| 2026-04-28 08:30 | 43.97077 | 125.86574 | 27025 ft | 463 kts | 185° |
| 2026-04-28 08:31 | 43.93853 | 125.86351 | 27256 ft | 464 kts | 185° |
| 2026-04-28 08:31 | 43.90618 | 125.86124 | 27481 ft | 466 kts | 185° |
| 2026-04-28 08:31 | 43.87379 | 125.85895 | 27698 ft | 467 kts | 185° |
| 2026-04-28 08:31 | 43.84132 | 125.85670 | 27905 ft | 468 kts | 185° |
| 2026-04-28 08:32 | 43.80875 | 125.85439 | 28129 ft | 468 kts | 186° |
| 2026-04-28 08:32 | 43.77664 | 125.84832 | 28369 ft | 464 kts | 196° |
| 2026-04-28 08:32 | 43.74645 | 125.83356 | 28637 ft | 458 kts | 208° |
| 2026-04-28 08:32 | 43.71814 | 125.81353 | 28917 ft | 456 kts | 211° |
| 2026-04-28 08:33 | 43.69018 | 125.79286 | 29186 ft | 456 kts | 211° |
| 2026-04-28 08:33 | 43.66216 | 125.77237 | 29454 ft | 455 kts | 211° |
| 2026-04-28 08:33 | 43.63410 | 125.75216 | 29724 ft | 455 kts | 211° |
| 2026-04-28 08:33 | 43.60602 | 125.73209 | 29986 ft | 454 kts | 210° |
| 2026-04-28 08:34 | 43.57798 | 125.71211 | 30223 ft | 454 kts | 210° |
| 2026-04-28 08:34 | 43.54994 | 125.69215 | 30399 ft | 454 kts | 210° |
| 2026-04-28 08:34 | 43.52183 | 125.67221 | 30579 ft | 454 kts | 210° |
| 2026-04-28 08:34 | 43.49368 | 125.65229 | 30762 ft | 455 kts | 210° |
| 2026-04-28 08:35 | 43.46555 | 125.63239 | 30950 ft | 455 kts | 210° |
| 2026-04-28 08:35 | 43.43780 | 125.61282 | 31137 ft | 455 kts | 210° |
| 2026-04-28 08:35 | 43.40931 | 125.59270 | 31330 ft | 455 kts | 210° |
| 2026-04-28 08:35 | 43.38149 | 125.57306 | 31517 ft | 455 kts | 210° |
| 2026-04-28 08:36 | 43.35338 | 125.55326 | 31702 ft | 455 kts | 210° |
| 2026-04-28 08:36 | 43.32516 | 125.53347 | 31889 ft | 455 kts | 210° |
| 2026-04-28 08:36 | 43.29700 | 125.51373 | 32076 ft | 455 kts | 210° |
| 2026-04-28 08:36 | 43.26887 | 125.49401 | 32254 ft | 455 kts | 210° |
| 2026-04-28 08:37 | 43.24067 | 125.47426 | 32442 ft | 454 kts | 210° |
| 2026-04-28 08:37 | 43.21249 | 125.45453 | 32638 ft | 454 kts | 210° |
| 2026-04-28 08:37 | 43.18442 | 125.43482 | 32826 ft | 454 kts | 210° |
| 2026-04-28 08:37 | 43.15627 | 125.41504 | 33013 ft | 454 kts | 210° |
| 2026-04-28 08:38 | 43.12820 | 125.39534 | 33204 ft | 453 kts | 211° |
| 2026-04-28 08:38 | 43.10017 | 125.37577 | 33389 ft | 453 kts | 211° |
| 2026-04-28 08:38 | 43.07211 | 125.35618 | 33574 ft | 452 kts | 211° |
| 2026-04-28 08:38 | 43.04409 | 125.33666 | 33754 ft | 452 kts | 211° |
| 2026-04-28 08:39 | 43.01612 | 125.31714 | 33944 ft | 451 kts | 211° |
| 2026-04-28 08:39 | 42.98814 | 125.29761 | 34105 ft | 451 kts | 211° |
| 2026-04-28 08:39 | 42.96019 | 125.27817 | 34170 ft | 450 kts | 211° |
| 2026-04-28 08:40 | 42.90445 | 125.23935 | 34151 ft | 449 kts | 211° |
| 2026-04-28 08:40 | 42.84871 | 125.20064 | 34140 ft | 449 kts | 211° |
| 2026-04-28 08:41 | 42.79338 | 125.16218 | 34143 ft | 448 kts | 211° |
| 2026-04-28 08:41 | 42.73800 | 125.12310 | 34143 ft | 448 kts | 212° |
| 2026-04-28 08:42 | 42.68267 | 125.08426 | 34142 ft | 447 kts | 211° |
| 2026-04-28 08:42 | 42.62738 | 125.04568 | 34142 ft | 446 kts | 212° |
| 2026-04-28 08:43 | 42.57213 | 125.00714 | 34145 ft | 446 kts | 212° |
| 2026-04-28 08:43 | 42.51703 | 124.96873 | 34140 ft | 445 kts | 212° |
| 2026-04-28 08:44 | 42.46198 | 124.93043 | 34141 ft | 444 kts | 212° |
| 2026-04-28 08:44 | 42.40726 | 124.89253 | 34143 ft | 444 kts | 212° |
| 2026-04-28 08:45 | 42.35232 | 124.85444 | 34142 ft | 444 kts | 212° |
| 2026-04-28 08:45 | 42.29735 | 124.81645 | 34147 ft | 443 kts | 212° |
| 2026-04-28 08:46 | 42.24249 | 124.77861 | 34148 ft | 443 kts | 212° |
| 2026-04-28 08:46 | 42.18765 | 124.74084 | 34146 ft | 442 kts | 212° |
| 2026-04-28 08:47 | 42.13294 | 124.70318 | 34146 ft | 441 kts | 212° |
| 2026-04-28 08:47 | 42.07835 | 124.66564 | 34147 ft | 440 kts | 212° |
| 2026-04-28 08:48 | 42.02387 | 124.62835 | 34153 ft | 439 kts | 212° |
| 2026-04-28 08:48 | 41.96979 | 124.59053 | 34146 ft | 436 kts | 214° |
| 2026-04-28 08:49 | 41.91713 | 124.55026 | 34151 ft | 435 kts | 215° |
| 2026-04-28 08:49 | 41.86484 | 124.51025 | 34148 ft | 435 kts | 215° |
| 2026-04-28 08:50 | 41.81221 | 124.47019 | 34150 ft | 434 kts | 215° |
| 2026-04-28 08:50 | 41.75978 | 124.43039 | 34154 ft | 433 kts | 216° |
| 2026-04-28 08:51 | 41.70748 | 124.39071 | 34151 ft | 431 kts | 216° |
| 2026-04-28 08:51 | 41.65530 | 124.35118 | 34151 ft | 430 kts | 216° |
| 2026-04-28 08:52 | 41.60323 | 124.31184 | 34158 ft | 429 kts | 216° |
| 2026-04-28 08:52 | 41.55127 | 124.27243 | 34156 ft | 428 kts | 216° |
| 2026-04-28 08:53 | 41.49936 | 124.23324 | 34153 ft | 428 kts | 216° |
| 2026-04-28 08:53 | 41.44761 | 124.19428 | 34159 ft | 426 kts | 216° |
| 2026-04-28 08:54 | 41.39602 | 124.15556 | 34158 ft | 425 kts | 216° |
| 2026-04-28 08:54 | 41.34407 | 124.11791 | 34161 ft | 424 kts | 216° |
| 2026-04-28 08:55 | 41.29240 | 124.08062 | 34160 ft | 423 kts | 216° |
| 2026-04-28 08:55 | 41.24107 | 124.04355 | 34157 ft | 421 kts | 216° |
| 2026-04-28 08:56 | 41.18961 | 124.00639 | 34161 ft | 421 kts | 216° |
| 2026-04-28 08:56 | 41.13819 | 123.96934 | 34164 ft | 419 kts | 217° |
| 2026-04-28 08:57 | 41.08713 | 123.93260 | 34159 ft | 416 kts | 217° |
| 2026-04-28 08:57 | 41.03627 | 123.89611 | 34156 ft | 415 kts | 217° |
| 2026-04-28 08:58 | 40.98572 | 123.85997 | 34149 ft | 407 kts | 218° |
| 2026-04-28 08:58 | 40.96124 | 123.84257 | 34140 ft | 390 kts | 218° |
| 2026-04-28 08:58 | 40.93788 | 123.82590 | 34132 ft | 374 kts | 218° |
| 2026-04-28 08:59 | 40.89314 | 123.79381 | 34148 ft | 365 kts | 219° |
| 2026-04-28 08:59 | 40.84856 | 123.76190 | 34161 ft | 363 kts | 219° |
| 2026-04-28 09:00 | 40.80440 | 123.72995 | 34158 ft | 361 kts | 220° |
| 2026-04-28 09:00 | 40.76055 | 123.69752 | 34161 ft | 360 kts | 220° |
| 2026-04-28 09:01 | 40.71700 | 123.66545 | 34163 ft | 358 kts | 220° |
| 2026-04-28 09:01 | 40.68087 | 123.63898 | 34159 ft | 356 kts | 221° |
| 2026-04-28 09:02 | 40.63763 | 123.60728 | 34162 ft | 355 kts | 221° |
| 2026-04-28 09:02 | 40.58760 | 123.57070 | 34173 ft | 353 kts | 221° |
| 2026-04-28 09:03 | 40.55170 | 123.54442 | 34162 ft | 352 kts | 221° |
| 2026-04-28 09:03 | 40.50206 | 123.50816 | 34165 ft | 350 kts | 221° |
| 2026-04-28 09:04 | 40.46669 | 123.48237 | 34164 ft | 349 kts | 222° |
| 2026-04-28 09:04 | 40.41710 | 123.44628 | 34157 ft | 347 kts | 222° |
| 2026-04-28 09:05 | 40.38204 | 123.42076 | 34166 ft | 346 kts | 223° |
| 2026-04-28 09:05 | 40.34009 | 123.39029 | 34165 ft | 343 kts | 223° |
| 2026-04-28 09:06 | 40.29842 | 123.36007 | 34167 ft | 341 kts | 223° |
| 2026-04-28 09:06 | 40.25693 | 123.33007 | 34170 ft | 339 kts | 224° |
| 2026-04-28 09:07 | 40.21591 | 123.30038 | 34172 ft | 338 kts | 224° |
| 2026-04-28 09:07 | 40.17485 | 123.27068 | 34172 ft | 336 kts | 224° |
| 2026-04-28 09:08 | 40.13387 | 123.24114 | 34181 ft | 335 kts | 224° |
| 2026-04-28 09:08 | 40.09319 | 123.21187 | 34179 ft | 333 kts | 225° |
| 2026-04-28 09:09 | 40.05268 | 123.18275 | 34173 ft | 331 kts | 225° |
| 2026-04-28 09:09 | 40.01263 | 123.15364 | 34170 ft | 328 kts | 226° |
| 2026-04-28 09:10 | 39.97283 | 123.12463 | 34177 ft | 327 kts | 226° |
| 2026-04-28 09:10 | 39.93344 | 123.09596 | 34180 ft | 325 kts | 226° |
| 2026-04-28 09:11 | 39.89385 | 123.06722 | 34179 ft | 324 kts | 226° |
| 2026-04-28 09:11 | 39.87434 | 123.05314 | 33985 ft | 317 kts | 226° |
| 2026-04-28 09:11 | 39.85521 | 123.03934 | 33548 ft | 311 kts | 227° |
| 2026-04-28 09:11 | 39.83643 | 123.02578 | 33074 ft | 305 kts | 227° |
| 2026-04-28 09:12 | 39.81800 | 123.01241 | 32558 ft | 302 kts | 227° |
| 2026-04-28 09:12 | 39.79973 | 122.99915 | 31949 ft | 300 kts | 227° |
| 2026-04-28 09:12 | 39.78153 | 122.98595 | 31320 ft | 298 kts | 227° |
| 2026-04-28 09:12 | 39.76341 | 122.97283 | 30707 ft | 297 kts | 227° |
| 2026-04-28 09:13 | 39.74540 | 122.95981 | 30102 ft | 296 kts | 227° |
| 2026-04-28 09:13 | 39.72738 | 122.94677 | 29373 ft | 296 kts | 226° |
| 2026-04-28 09:13 | 39.70916 | 122.93347 | 28560 ft | 309 kts | 225° |
| 2026-04-28 09:13 | 39.68997 | 122.91899 | 27875 ft | 324 kts | 223° |
| 2026-04-28 09:14 | 39.67011 | 122.90469 | 27115 ft | 328 kts | 220° |
| 2026-04-28 09:14 | 39.65022 | 122.89064 | 26359 ft | 332 kts | 219° |
| 2026-04-28 09:14 | 39.62985 | 122.87618 | 25549 ft | 335 kts | 218° |
| 2026-04-28 09:14 | 39.60925 | 122.86149 | 24752 ft | 340 kts | 216° |
| 2026-04-28 09:15 | 39.58829 | 122.84647 | 23938 ft | 347 kts | 214° |
| 2026-04-28 09:15 | 39.56698 | 122.83120 | 22996 ft | 353 kts | 213° |
| 2026-04-28 09:15 | 39.54523 | 122.81560 | 21984 ft | 360 kts | 213° |
| 2026-04-28 09:15 | 39.52316 | 122.79979 | 21140 ft | 363 kts | 212° |
| 2026-04-28 09:16 | 39.50108 | 122.78401 | 20448 ft | 362 kts | 212° |
| 2026-04-28 09:16 | 39.47911 | 122.76832 | 19793 ft | 360 kts | 211° |
| 2026-04-28 09:16 | 39.45720 | 122.75266 | 19121 ft | 358 kts | 211° |
| 2026-04-28 09:16 | 39.43538 | 122.73705 | 18452 ft | 358 kts | 210° |
| 2026-04-28 09:17 | 39.41369 | 122.72154 | 17708 ft | 356 kts | 210° |
| 2026-04-28 09:17 | 39.39203 | 122.70607 | 17018 ft | 354 kts | 210° |
| 2026-04-28 09:17 | 39.37060 | 122.69079 | 16368 ft | 351 kts | 210° |
| 2026-04-28 09:17 | 39.34928 | 122.67561 | 15743 ft | 347 kts | 211° |
| 2026-04-28 09:18 | 39.32847 | 122.66079 | 15134 ft | 345 kts | 211° |
| 2026-04-28 09:18 | 39.30752 | 122.64585 | 14529 ft | 342 kts | 211° |
| 2026-04-28 09:18 | 39.28680 | 122.63111 | 13945 ft | 339 kts | 211° |
| 2026-04-28 09:18 | 39.26624 | 122.61633 | 13303 ft | 336 kts | 213° |
| 2026-04-28 09:19 | 39.24635 | 122.60069 | 12658 ft | 333 kts | 214° |
| 2026-04-28 09:19 | 39.22672 | 122.58494 | 12025 ft | 331 kts | 215° |
| 2026-04-28 09:19 | 39.20723 | 122.56932 | 11415 ft | 329 kts | 215° |
| 2026-04-28 09:19 | 39.18782 | 122.55379 | 10794 ft | 327 kts | 215° |
| 2026-04-28 09:20 | 39.16870 | 122.53846 | 10289 ft | 322 kts | 215° |
| 2026-04-28 09:20 | 39.14999 | 122.52348 | 9928 ft | 312 kts | 215° |
| 2026-04-28 09:20 | 39.13165 | 122.50882 | 9414 ft | 307 kts | 215° |
| 2026-04-28 09:20 | 39.11366 | 122.49445 | 8922 ft | 301 kts | 215° |
| 2026-04-28 09:21 | 39.09603 | 122.48037 | 8430 ft | 297 kts | 215° |
| 2026-04-28 09:21 | 39.07851 | 122.46639 | 8000 ft | 295 kts | 215° |
| 2026-04-28 09:21 | 39.06112 | 122.45256 | 7618 ft | 293 kts | 214° |
| 2026-04-28 09:21 | 39.04527 | 122.43664 | 7211 ft | 287 kts | 233° |
| 2026-04-28 09:22 | 39.03514 | 122.41519 | 6867 ft | 276 kts | 251° |
| 2026-04-28 09:22 | 39.02808 | 122.39252 | 6587 ft | 270 kts | 253° |
| 2026-04-28 09:22 | 39.02133 | 122.37024 | 6323 ft | 265 kts | 253° |
| 2026-04-28 09:22 | 39.01458 | 122.34844 | 6055 ft | 259 kts | 252° |
| 2026-04-28 09:23 | 39.00790 | 122.32717 | 5787 ft | 254 kts | 252° |
| 2026-04-28 09:23 | 39.00129 | 122.30638 | 5518 ft | 248 kts | 252° |
| 2026-04-28 09:23 | 38.99480 | 122.28605 | 5271 ft | 244 kts | 252° |
| 2026-04-28 09:23 | 38.98837 | 122.26597 | 5014 ft | 242 kts | 252° |
| 2026-04-28 09:24 | 38.98197 | 122.24605 | 4745 ft | 240 kts | 252° |
| 2026-04-28 09:24 | 38.97561 | 122.22628 | 4499 ft | 240 kts | 252° |
| 2026-04-28 09:24 | 38.96935 | 122.20688 | 4238 ft | 235 kts | 252° |
| 2026-04-28 09:24 | 38.96316 | 122.18781 | 3964 ft | 228 kts | 252° |
| 2026-04-28 09:25 | 38.95713 | 122.16922 | 3705 ft | 222 kts | 253° |
| 2026-04-28 09:25 | 38.95127 | 122.15112 | 3455 ft | 217 kts | 253° |
| 2026-04-28 09:25 | 38.94553 | 122.13336 | 3182 ft | 213 kts | 253° |
| 2026-04-28 09:25 | 38.93986 | 122.11588 | 2988 ft | 211 kts | 253° |
| 2026-04-28 09:26 | 38.93417 | 122.09839 | 2968 ft | 212 kts | 252° |
| 2026-04-28 09:26 | 38.92843 | 122.08098 | 2982 ft | 212 kts | 253° |
| 2026-04-28 09:26 | 38.92388 | 122.06316 | 2985 ft | 207 kts | 271° |
| 2026-04-28 09:26 | 38.92468 | 122.04512 | 2998 ft | 202 kts | 282° |
| 2026-04-28 09:27 | 38.92805 | 122.00933 | 3006 ft | 203 kts | 281° |
| 2026-04-28 09:27 | 38.92959 | 121.99122 | 3002 ft | 204 kts | 281° |
| 2026-04-28 09:27 | 38.93108 | 121.97316 | 3000 ft | 203 kts | 281° |
| 2026-04-28 09:28 | 38.93252 | 121.95586 | 2932 ft | 186 kts | 282° |
| 2026-04-28 09:28 | 38.93451 | 121.93991 | 2725 ft | 177 kts | 283° |
| 2026-04-28 09:28 | 38.93590 | 121.92435 | 2474 ft | 175 kts | 282° |
| 2026-04-28 09:28 | 38.93715 | 121.90879 | 2218 ft | 174 kts | 282° |
| 2026-04-28 09:29 | 38.93833 | 121.89346 | 2009 ft | 172 kts | 281° |
| 2026-04-28 09:29 | 38.93949 | 121.87841 | 1979 ft | 171 kts | 280° |
| 2026-04-28 09:29 | 38.94066 | 121.86312 | 1982 ft | 172 kts | 281° |
| 2026-04-28 09:29 | 38.94184 | 121.84785 | 1989 ft | 172 kts | 281° |
| 2026-04-28 09:30 | 38.94301 | 121.83259 | 1988 ft | 171 kts | 281° |
| 2026-04-28 09:30 | 38.94420 | 121.81729 | 1995 ft | 172 kts | 281° |
| 2026-04-28 09:30 | 38.94537 | 121.80200 | 2006 ft | 172 kts | 281° |
| 2026-04-28 09:30 | 38.94655 | 121.78671 | 2004 ft | 172 kts | 281° |
| 2026-04-28 09:31 | 38.94772 | 121.77150 | 2002 ft | 171 kts | 281° |
| 2026-04-28 09:31 | 38.94889 | 121.75631 | 2002 ft | 171 kts | 281° |
| 2026-04-28 09:31 | 38.95006 | 121.74114 | 2002 ft | 170 kts | 280° |
| 2026-04-28 09:31 | 38.95123 | 121.72588 | 2004 ft | 172 kts | 281° |
| 2026-04-28 09:32 | 38.95242 | 121.71051 | 2003 ft | 173 kts | 281° |
| 2026-04-28 09:32 | 38.95360 | 121.69518 | 2008 ft | 170 kts | 280° |
| 2026-04-28 09:32 | 38.95465 | 121.68127 | 2000 ft | 148 kts | 280° |
| 2026-04-28 09:32 | 38.95563 | 121.66865 | 1881 ft | 140 kts | 280° |
| 2026-04-28 09:33 | 38.95658 | 121.65626 | 1701 ft | 139 kts | 281° |
| 2026-04-28 09:33 | 38.95754 | 121.64385 | 1497 ft | 139 kts | 281° |
| 2026-04-28 09:33 | 38.95849 | 121.63147 | 1323 ft | 139 kts | 281° |
| 2026-04-28 09:33 | 38.95943 | 121.61920 | 1147 ft | 138 kts | 280° |
| 2026-04-28 09:34 | 38.96037 | 121.60695 | 953 ft | 138 kts | 279° |
| 2026-04-28 09:34 | 38.96130 | 121.59477 | 747 ft | 136 kts | 278° |
| 2026-04-28 09:34 | 38.96219 | 121.58257 | 591 ft | 138 kts | 278° |
| 2026-04-28 09:34 | 38.96319 | 121.57038 | 377 ft | 136 kts | 278° |
| 2026-04-28 09:35 | 38.96411 | 121.55811 | 223 ft | 139 kts | 277° |
| 2026-04-28 09:35 | 38.96502 | 121.54626 | 121 ft | 123 kts | 276° |
| 2026-04-28 09:35 | 38.96558 | 121.53853 | 119 ft | 57 kts | 275° |
| 2026-04-28 09:35 | 38.96583 | 121.53480 | 118 ft | 38 kts | 269° |
| 2026-04-28 09:36 | 38.96530 | 121.53220 | 121 ft | 11 kts | 245° |
| 2026-04-28 09:36 | 38.96495 | 121.53120 | 120 ft | 11 kts | 244° |
| 2026-04-28 09:36 | 38.96433 | 121.53097 | 119 ft | 11 kts | 146° |
| 2026-04-28 09:36 | 38.96410 | 121.53189 | 121 ft | 10 kts | 90° |
| 2026-04-28 09:37 | 38.96419 | 121.53281 | 119 ft | 9 kts | 81° |
| 2026-04-28 09:37 | 38.96418 | 121.53367 | 120 ft | 7 kts | 95° |
| 2026-04-28 09:37 | 38.96413 | 121.53443 | 120 ft | 10 kts | 95° |
| 2026-04-28 09:37 | 38.96407 | 121.53522 | 121 ft | 6 kts | 96° |
| 2026-04-28 09:38 | 38.96382 | 121.53578 | 120 ft | 10 kts | 160° |
| 2026-04-28 09:38 | 38.96331 | 121.53580 | 118 ft | 6 kts | 182° |
| 2026-04-28 09:38 | 38.96288 | 121.53578 | 119 ft | 8 kts | 182° |
| 2026-04-28 09:38 | 38.96264 | 121.53576 | 119 ft | 3 kts | 182° |
| 2026-04-28 09:39 | 38.96254 | 121.53576 | 120 ft | 0 kts | 182° |
| 2026-04-28 09:39 | 38.96247 | 121.53576 | 120 ft | 0 kts | 182° |